Grosse Isle, Canada
Current Conditions -  °F | °C
As of 3:00 AM on Wednesday 22 Oct 2014 (Local Time) from CYWG Reporting Station
Clear Clear  
Wind Chill: 55°   Ceiling: Unl
Heat Index: 55°   Visibility: 15mi
Dew Point: 41°   Wind: 26mph
Humidity: 58%   Direction: 170°S
Pressure: 29.76"   Gusts: 37mph
Location:  50.06°N, 97.44°W
Report Text: CYWG 220800Z 17023G32KT 15SM SKC 13/05 A2976 RMK SLP081 DENSITY ALT 800FT
Loading
Personal Weather Stations






























Interactive Weather Map
Tropical Storm Tracking
New forecast layout! Learn more

10-Day Weather Forecast

Advertisements
Track Severe Weather on mobile